createdAt,value
2018-12-13T00:08:34.747Z,102137.34
2018-12-13T00:11:10.765Z,102136.08
2018-12-13T00:13:47.760Z,102134.92
2018-12-13T00:16:19.412Z,102133.25
2018-12-13T00:25:05.152Z,102130.80
2018-12-13T00:27:34.632Z,102126.39
2018-12-13T00:30:04.521Z,102129.10
2018-12-13T01:23:10.713Z,102131.42
2018-12-13T01:25:40.344Z,102128.34
2018-12-13T01:28:09.630Z,102137.16
2018-12-13T01:30:42.127Z,102131.37
2018-12-13T02:52:19.685Z,102104.34
2018-12-13T02:54:49.187Z,102107.53
2018-12-13T02:57:18.472Z,102098.22
2018-12-13T02:59:47.762Z,102108.06
2018-12-13T03:02:17.321Z,102108.64
2018-12-13T03:04:46.583Z,102109.63
2018-12-13T03:07:15.895Z,102099.10
2018-12-13T03:09:45.173Z,102094.97
2018-12-13T03:12:14.467Z,102091.30
2018-12-13T03:14:43.756Z,102090.79
2018-12-13T03:17:13.222Z,102086.89
2018-12-13T03:19:42.532Z,102091.94
2018-12-13T03:22:12.060Z,102088.33
2018-12-13T03:24:41.592Z,102080.63
2018-12-13T03:27:10.876Z,102086.84
2018-12-13T03:29:40.505Z,102088.77
2018-12-13T03:32:09.798Z,102083.59
2018-12-13T03:34:39.089Z,102074.39
2018-12-13T03:37:08.628Z,102081.46
2018-12-13T03:39:38.135Z,102076.57
2018-12-13T03:42:07.728Z,102080.94
2018-12-13T03:44:37.307Z,102077.85
2018-12-13T03:47:06.603Z,102078.00
2018-12-13T03:49:35.872Z,102081.80
2018-12-13T03:52:05.469Z,102076.20
2018-12-13T03:54:35.388Z,102077.17
2018-12-13T03:57:04.691Z,102078.16
2018-12-13T03:59:34.116Z,102077.68
2018-12-13T04:02:03.404Z,102077.20
2018-12-13T04:04:32.748Z,102075.83
2018-12-13T04:07:02.326Z,102074.27
2018-12-13T04:09:31.780Z,102064.07
2018-12-13T04:12:01.283Z,102060.55
2018-12-13T04:14:30.837Z,102062.78
2018-12-13T04:17:00.708Z,102067.53
2018-12-13T04:19:30.225Z,102049.63
2018-12-13T04:22:01.120Z,102054.95
2018-12-13T04:24:30.426Z,102054.19
2018-12-13T04:26:59.723Z,102068.42
2018-12-13T04:29:29.362Z,102060.08
2018-12-13T04:31:58.659Z,102055.39
2018-12-13T09:00:35.492Z,102012.80
2018-12-13T09:09:21.812Z,102018.97
2018-12-13T09:11:51.100Z,102014.69
2018-12-13T09:30:08.285Z,102012.05
2018-12-13T09:32:37.619Z,102012.70
2018-12-13T09:35:06.898Z,102005.77
2018-12-13T09:37:36.422Z,102011.75
2018-12-13T09:40:06.117Z,102012.44
2018-12-13T09:42:35.451Z,102014.88
2018-12-13T09:45:06.039Z,102009.16
2018-12-13T09:47:35.388Z,102007.03
2018-12-13T09:50:05.772Z,102003.39
2018-12-13T10:05:08.593Z,101994.95
2018-12-13T10:07:38.188Z,101998.42
2018-12-13T10:10:07.473Z,101993.63
2018-12-13T10:37:49.464Z,101964.26
2018-12-13T10:40:19.184Z,101977.27
2018-12-13T10:52:11.266Z,101961.41
2018-12-13T10:54:40.558Z,101966.23
2018-12-13T10:57:09.821Z,101955.92
2018-12-13T10:59:39.112Z,101957.25
2018-12-13T11:27:41.632Z,101933.48
2018-12-13T11:30:24.725Z,101931.95
2018-12-13T11:32:54.539Z,101936.14
2018-12-13T11:35:23.820Z,101933.95
2018-12-13T11:40:58.823Z,101933.64
2018-12-13T11:43:28.092Z,101939.48
2018-12-13T11:45:57.426Z,101933.64
2018-12-13T11:48:26.645Z,101934.14
2018-12-13T11:50:57.043Z,101936.21
2018-12-13T11:53:26.579Z,101940.11
2018-12-13T14:50:06.704Z,101847.83
2018-12-13T14:52:36.149Z,101846.63
2018-12-13T14:55:05.544Z,101855.06
2018-12-13T14:57:34.983Z,101850.33
2018-12-13T15:00:05.867Z,101856.21
2018-12-13T15:02:36.060Z,101845.22
2018-12-13T17:43:25.260Z,101877.63
2018-12-13T18:11:07.265Z,101870.95
2018-12-13T18:13:36.800Z,101862.49
2018-12-13T18:16:06.131Z,101865.16
2018-12-13T18:18:36.110Z,101872.30
2018-12-13T18:21:05.714Z,101869.34
2018-12-13T18:23:37.232Z,101873.73
2018-12-13T18:26:06.914Z,101871.09
2018-12-13T18:28:36.517Z,101868.44
2018-12-13T18:31:05.800Z,101869.34
2018-12-13T18:33:35.440Z,101869.09
2018-12-13T18:42:34.010Z,101882.55
2018-12-13T18:45:03.385Z,101878.12
2018-12-13T18:47:32.673Z,101875.45
2018-12-13T18:50:01.956Z,101876.31
2018-12-13T18:52:31.509Z,101881.64
2018-12-13T18:55:00.775Z,101875.04
2018-12-13T18:57:30.343Z,101879.08
2018-12-13T18:59:59.624Z,101871.55
2018-12-13T19:02:28.969Z,101876.00
2018-12-13T19:04:58.196Z,101873.77
2018-12-13T19:07:27.728Z,101876.00
2018-12-13T19:09:57.853Z,101871.59
2018-12-13T19:21:57.797Z,101871.52
2018-12-13T19:40:13.148Z,101880.85
2018-12-13T19:42:42.575Z,101884.00
2018-12-13T19:45:12.652Z,101882.67
2018-12-13T19:47:42.020Z,101884.42
2018-12-13T19:50:11.584Z,101889.20
2018-12-13T19:52:40.894Z,101895.97
2018-12-13T19:55:10.160Z,101897.05
2018-12-13T19:57:39.700Z,101895.24
2018-12-13T20:00:09.907Z,101898.25
2018-12-13T20:02:39.476Z,101890.22
2018-12-13T20:05:08.787Z,101896.39
2018-12-13T20:07:38.028Z,101900.31
2018-12-13T20:10:08.059Z,101900.73
2018-12-13T20:12:37.647Z,101900.31
2018-12-13T20:15:06.945Z,101900.23
2018-12-13T20:17:36.232Z,101897.03
2018-12-13T20:20:06.180Z,101904.54
2018-12-13T20:22:36.899Z,101899.77
2018-12-13T20:25:06.504Z,101905.50
2018-12-13T20:27:35.860Z,101909.00
2018-12-13T20:30:06.746Z,101907.98
2018-12-13T20:32:36.028Z,101909.67
2018-12-13T20:35:05.836Z,101903.57
2018-12-13T20:37:36.068Z,101906.66
2018-12-13T20:40:05.404Z,101908.45
2018-12-13T20:42:34.674Z,101908.47
2018-12-13T20:45:04.735Z,101908.41
2018-12-13T20:47:34.006Z,101900.42
2018-12-13T20:50:04.496Z,101903.02
2018-12-13T20:52:33.770Z,101898.17
2018-12-13T20:55:03.917Z,101904.88
2018-12-13T20:57:33.188Z,101896.06
2018-12-13T21:00:02.672Z,101905.45
2018-12-13T21:02:32.955Z,101897.45
2018-12-13T21:05:02.277Z,101901.82
2018-12-13T21:07:33.753Z,101899.64
2018-12-13T21:19:28.199Z,101904.34
2018-12-13T21:21:58.195Z,101904.28
2018-12-13T21:24:27.776Z,101910.46
2018-12-13T21:26:57.065Z,101905.61
2018-12-13T21:29:26.644Z,101909.60
2018-12-13T21:31:55.928Z,101906.58
2018-12-13T21:34:25.214Z,101906.47
2018-12-13T21:36:54.809Z,101906.86
2018-12-13T21:39:24.346Z,101899.80
2018-12-13T21:41:53.867Z,101897.99
2018-12-13T21:44:23.262Z,101896.72
2018-12-13T21:46:52.884Z,101900.34
2018-12-13T21:49:22.168Z,101905.25
2018-12-13T21:51:51.472Z,101898.59
2018-12-13T21:57:23.536Z,101895.83
2018-12-13T21:59:52.863Z,101890.90
